sensor_id;sensor_type;location;lat;lon;timestamp;P1;durP1;ratioP1;P2;durP2;ratioP2
56363;SDS011;42261;52.094;4.326;2023-05-10T00:00:27;21.38;;;10.82;;
56363;SDS011;42261;52.094;4.326;2023-05-10T00:03:11;22.65;;;11.15;;
56363;SDS011;42261;52.094;4.326;2023-05-10T00:05:55;16.52;;;9.98;;
56363;SDS011;42261;52.094;4.326;2023-05-10T00:08:39;17.90;;;9.88;;
56363;SDS011;42261;52.094;4.326;2023-05-10T00:11:23;18.75;;;12.02;;
56363;SDS011;42261;52.094;4.326;2023-05-10T00:14:07;17.88;;;11.05;;
56363;SDS011;42261;52.094;4.326;2023-05-10T00:16:51;20.15;;;10.35;;
56363;SDS011;42261;52.094;4.326;2023-05-10T00:19:34;18.17;;;9.82;;
56363;SDS011;42261;52.094;4.326;2023-05-10T00:22:18;18.13;;;10.85;;
56363;SDS011;42261;52.094;4.326;2023-05-10T00:25:02;21.25;;;11.55;;
56363;SDS011;42261;52.094;4.326;2023-05-10T00:27:46;22.95;;;13.30;;
56363;SDS011;42261;52.094;4.326;2023-05-10T00:30:31;20.88;;;12.57;;
56363;SDS011;42261;52.094;4.326;2023-05-10T00:33:15;19.77;;;12.50;;
56363;SDS011;42261;52.094;4.326;2023-05-10T00:35:59;21.42;;;12.98;;
56363;SDS011;42261;52.094;4.326;2023-05-10T00:38:45;21.25;;;11.57;;
56363;SDS011;42261;52.094;4.326;2023-05-10T00:41:30;19.02;;;12.23;;
56363;SDS011;42261;52.094;4.326;2023-05-10T00:44:16;20.13;;;11.45;;
56363;SDS011;42261;52.094;4.326;2023-05-10T00:47:03;23.73;;;12.65;;
56363;SDS011;42261;52.094;4.326;2023-05-10T00:49:47;24.65;;;13.15;;
56363;SDS011;42261;52.094;4.326;2023-05-10T00:52:31;21.17;;;13.18;;
56363;SDS011;42261;52.094;4.326;2023-05-10T00:55:15;25.33;;;14.90;;
56363;SDS011;42261;52.094;4.326;2023-05-10T00:58:00;24.92;;;15.15;;
56363;SDS011;42261;52.094;4.326;2023-05-10T01:00:45;25.13;;;14.73;;
56363;SDS011;42261;52.094;4.326;2023-05-10T01:03:30;28.35;;;14.63;;
56363;SDS011;42261;52.094;4.326;2023-05-10T01:06:14;28.23;;;15.45;;
56363;SDS011;42261;52.094;4.326;2023-05-10T01:08:58;26.52;;;14.50;;
56363;SDS011;42261;52.094;4.326;2023-05-10T01:11:42;22.30;;;13.40;;
56363;SDS011;42261;52.094;4.326;2023-05-10T01:14:26;24.95;;;14.02;;
56363;SDS011;42261;52.094;4.326;2023-05-10T01:17:10;20.40;;;12.70;;
56363;SDS011;42261;52.094;4.326;2023-05-10T01:19:55;23.13;;;13.98;;
56363;SDS011;42261;52.094;4.326;2023-05-10T01:34:34;22.98;;;12.85;;
56363;SDS011;42261;52.094;4.326;2023-05-10T01:37:24;23.90;;;12.82;;
56363;SDS011;42261;52.094;4.326;2023-05-10T01:40:17;25.38;;;12.45;;
56363;SDS011;42261;52.094;4.326;2023-05-10T01:43:04;24.27;;;13.23;;
56363;SDS011;42261;52.094;4.326;2023-05-10T01:48:49;24.38;;;12.93;;
56363;SDS011;42261;52.094;4.326;2023-05-10T01:51:36;26.63;;;12.70;;
56363;SDS011;42261;52.094;4.326;2023-05-10T01:54:21;26.05;;;13.50;;
56363;SDS011;42261;52.094;4.326;2023-05-10T01:57:06;28.67;;;14.60;;
56363;SDS011;42261;52.094;4.326;2023-05-10T01:59:52;25.95;;;14.32;;
56363;SDS011;42261;52.094;4.326;2023-05-10T02:02:47;31.23;;;14.20;;
56363;SDS011;42261;52.094;4.326;2023-05-10T02:05:32;32.13;;;15.68;;
56363;SDS011;42261;52.094;4.326;2023-05-10T02:08:18;26.10;;;13.85;;
56363;SDS011;42261;52.094;4.326;2023-05-10T02:11:03;25.90;;;14.73;;
56363;SDS011;42261;52.094;4.326;2023-05-10T02:13:49;26.02;;;14.32;;
56363;SDS011;42261;52.094;4.326;2023-05-10T02:16:34;24.77;;;13.68;;
56363;SDS011;42261;52.094;4.326;2023-05-10T02:19:19;22.23;;;14.13;;
56363;SDS011;42261;52.094;4.326;2023-05-10T02:22:04;25.88;;;13.75;;
56363;SDS011;42261;52.094;4.326;2023-05-10T02:24:48;20.48;;;11.35;;
56363;SDS011;42261;52.094;4.326;2023-05-10T02:27:33;24.00;;;12.45;;
56363;SDS011;42261;52.094;4.326;2023-05-10T02:30:18;22.67;;;10.95;;
56363;SDS011;42261;52.094;4.326;2023-05-10T02:33:03;19.73;;;9.93;;
56363;SDS011;42261;52.094;4.326;2023-05-10T02:35:47;21.13;;;13.48;;
56363;SDS011;42261;52.094;4.326;2023-05-10T02:38:32;21.20;;;12.30;;
56363;SDS011;42261;52.094;4.326;2023-05-10T02:41:17;25.58;;;13.55;;
56363;SDS011;42261;52.094;4.326;2023-05-10T02:44:03;21.85;;;11.73;;
56363;SDS011;42261;52.094;4.326;2023-05-10T02:46:50;17.55;;;9.85;;
56363;SDS011;42261;52.094;4.326;2023-05-10T02:49:34;24.90;;;12.32;;
56363;SDS011;42261;52.094;4.326;2023-05-10T02:52:21;30.33;;;15.18;;
56363;SDS011;42261;52.094;4.326;2023-05-10T02:55:06;25.85;;;14.15;;
56363;SDS011;42261;52.094;4.326;2023-05-10T02:57:54;26.38;;;14.65;;
56363;SDS011;42261;52.094;4.326;2023-05-10T03:00:40;26.42;;;12.82;;
56363;SDS011;42261;52.094;4.326;2023-05-10T03:03:24;20.67;;;10.50;;
56363;SDS011;42261;52.094;4.326;2023-05-10T03:06:08;24.45;;;14.48;;
56363;SDS011;42261;52.094;4.326;2023-05-10T03:08:53;22.38;;;13.40;;
56363;SDS011;42261;52.094;4.326;2023-05-10T03:20:12;27.80;;;13.25;;
56363;SDS011;42261;52.094;4.326;2023-05-10T03:23:02;29.02;;;14.60;;
56363;SDS011;42261;52.094;4.326;2023-05-10T03:25:49;26.45;;;14.07;;
56363;SDS011;42261;52.094;4.326;2023-05-10T03:28:34;19.02;;;11.23;;
56363;SDS011;42261;52.094;4.326;2023-05-10T03:31:19;25.13;;;14.00;;
56363;SDS011;42261;52.094;4.326;2023-05-10T03:34:03;24.50;;;12.10;;
56363;SDS011;42261;52.094;4.326;2023-05-10T03:36:47;28.42;;;12.63;;
56363;SDS011;42261;52.094;4.326;2023-05-10T03:39:31;24.27;;;14.50;;
56363;SDS011;42261;52.094;4.326;2023-05-10T03:42:15;20.60;;;10.38;;
56363;SDS011;42261;52.094;4.326;2023-05-10T03:45:01;21.63;;;11.07;;
56363;SDS011;42261;52.094;4.326;2023-05-10T03:47:46;23.85;;;11.95;;
56363;SDS011;42261;52.094;4.326;2023-05-10T03:50:30;18.75;;;11.02;;
56363;SDS011;42261;52.094;4.326;2023-05-10T03:53:14;22.02;;;12.48;;
56363;SDS011;42261;52.094;4.326;2023-05-10T03:55:59;18.95;;;10.57;;
56363;SDS011;42261;52.094;4.326;2023-05-10T03:58:43;25.83;;;12.00;;
56363;SDS011;42261;52.094;4.326;2023-05-10T04:01:27;22.25;;;11.13;;
56363;SDS011;42261;52.094;4.326;2023-05-10T04:04:11;25.88;;;13.35;;
56363;SDS011;42261;52.094;4.326;2023-05-10T04:06:56;25.08;;;10.55;;
56363;SDS011;42261;52.094;4.326;2023-05-10T04:09:40;41.47;;;9.88;;
56363;SDS011;42261;52.094;4.326;2023-05-10T04:12:24;28.67;;;9.35;;
56363;SDS011;42261;52.094;4.326;2023-05-10T04:15:08;33.65;;;8.35;;
56363;SDS011;42261;52.094;4.326;2023-05-10T04:17:52;32.95;;;7.53;;
56363;SDS011;42261;52.094;4.326;2023-05-10T04:20:37;19.25;;;7.13;;
56363;SDS011;42261;52.094;4.326;2023-05-10T04:23:21;23.00;;;6.35;;
56363;SDS011;42261;52.094;4.326;2023-05-10T04:26:05;18.83;;;6.65;;
56363;SDS011;42261;52.094;4.326;2023-05-10T04:28:49;28.13;;;7.18;;
56363;SDS011;42261;52.094;4.326;2023-05-10T04:31:33;26.40;;;6.82;;
56363;SDS011;42261;52.094;4.326;2023-05-10T04:34:18;25.15;;;5.82;;
56363;SDS011;42261;52.094;4.326;2023-05-10T04:37:05;25.88;;;5.90;;
56363;SDS011;42261;52.094;4.326;2023-05-10T04:39:49;27.05;;;6.43;;
56363;SDS011;42261;52.094;4.326;2023-05-10T04:42:34;45.13;;;4.85;;
56363;SDS011;42261;52.094;4.326;2023-05-10T04:45:18;16.98;;;4.22;;
56363;SDS011;42261;52.094;4.326;2023-05-10T04:48:02;19.48;;;4.97;;
56363;SDS011;42261;52.094;4.326;2023-05-10T04:50:46;14.30;;;4.72;;
56363;SDS011;42261;52.094;4.326;2023-05-10T04:53:30;9.82;;;3.97;;
56363;SDS011;42261;52.094;4.326;2023-05-10T04:56:14;8.52;;;3.88;;
56363;SDS011;42261;52.094;4.326;2023-05-10T04:58:59;10.82;;;4.30;;
56363;SDS011;42261;52.094;4.326;2023-05-10T05:01:43;6.43;;;3.65;;
56363;SDS011;42261;52.094;4.326;2023-05-10T05:04:27;6.57;;;3.13;;
56363;SDS011;42261;52.094;4.326;2023-05-10T05:07:11;7.03;;;3.60;;
56363;SDS011;42261;52.094;4.326;2023-05-10T05:09:55;6.78;;;3.35;;
56363;SDS011;42261;52.094;4.326;2023-05-10T05:12:39;6.65;;;3.33;;
56363;SDS011;42261;52.094;4.326;2023-05-10T05:15:23;8.18;;;3.63;;
56363;SDS011;42261;52.094;4.326;2023-05-10T05:18:07;7.10;;;3.88;;
56363;SDS011;42261;52.094;4.326;2023-05-10T05:20:51;4.93;;;2.75;;
56363;SDS011;42261;52.094;4.326;2023-05-10T05:23:35;4.05;;;2.50;;
56363;SDS011;42261;52.094;4.326;2023-05-10T05:26:20;4.38;;;2.45;;
56363;SDS011;42261;52.094;4.326;2023-05-10T05:29:04;3.67;;;2.20;;
56363;SDS011;42261;52.094;4.326;2023-05-10T05:31:48;5.13;;;2.00;;
56363;SDS011;42261;52.094;4.326;2023-05-10T05:34:31;2.90;;;1.63;;
56363;SDS011;42261;52.094;4.326;2023-05-10T05:37:17;2.72;;;1.50;;
56363;SDS011;42261;52.094;4.326;2023-05-10T05:40:02;2.42;;;1.52;;
56363;SDS011;42261;52.094;4.326;2023-05-10T05:42:46;2.22;;;1.30;;
56363;SDS011;42261;52.094;4.326;2023-05-10T05:45:30;2.90;;;1.48;;
56363;SDS011;42261;52.094;4.326;2023-05-10T05:48:14;2.65;;;1.42;;
56363;SDS011;42261;52.094;4.326;2023-05-10T05:50:58;2.13;;;1.63;;
56363;SDS011;42261;52.094;4.326;2023-05-10T05:53:42;3.22;;;2.17;;
56363;SDS011;42261;52.094;4.326;2023-05-10T05:56:26;3.58;;;2.40;;
56363;SDS011;42261;52.094;4.326;2023-05-10T05:59:11;4.22;;;2.58;;
56363;SDS011;42261;52.094;4.326;2023-05-10T06:01:55;4.00;;;2.30;;
56363;SDS011;42261;52.094;4.326;2023-05-10T06:04:39;3.47;;;2.80;;
56363;SDS011;42261;52.094;4.326;2023-05-10T06:07:24;4.15;;;2.72;;
56363;SDS011;42261;52.094;4.326;2023-05-10T06:10:08;6.25;;;3.00;;
56363;SDS011;42261;52.094;4.326;2023-05-10T06:12:52;7.40;;;3.42;;
56363;SDS011;42261;52.094;4.326;2023-05-10T06:15:37;7.60;;;3.92;;
56363;SDS011;42261;52.094;4.326;2023-05-10T06:18:21;7.03;;;3.92;;
56363;SDS011;42261;52.094;4.326;2023-05-10T06:21:05;8.25;;;3.97;;
56363;SDS011;42261;52.094;4.326;2023-05-10T06:23:49;10.35;;;4.20;;
56363;SDS011;42261;52.094;4.326;2023-05-10T06:26:33;8.30;;;4.40;;
56363;SDS011;42261;52.094;4.326;2023-05-10T06:29:17;7.32;;;4.32;;
56363;SDS011;42261;52.094;4.326;2023-05-10T06:32:01;9.35;;;4.20;;
56363;SDS011;42261;52.094;4.326;2023-05-10T06:34:46;8.35;;;4.90;;
56363;SDS011;42261;52.094;4.326;2023-05-10T06:37:30;9.75;;;3.58;;
56363;SDS011;42261;52.094;4.326;2023-05-10T06:40:14;7.55;;;3.35;;
56363;SDS011;42261;52.094;4.326;2023-05-10T06:42:59;6.53;;;4.25;;
56363;SDS011;42261;52.094;4.326;2023-05-10T06:45:43;7.43;;;4.32;;
56363;SDS011;42261;52.094;4.326;2023-05-10T06:48:27;9.25;;;4.55;;
56363;SDS011;42261;52.094;4.326;2023-05-10T06:51:11;9.98;;;4.80;;
56363;SDS011;42261;52.094;4.326;2023-05-10T06:53:55;12.00;;;5.28;;
56363;SDS011;42261;52.094;4.326;2023-05-10T06:56:39;8.65;;;4.57;;
56363;SDS011;42261;52.094;4.326;2023-05-10T06:59:23;7.80;;;4.22;;
56363;SDS011;42261;52.094;4.326;2023-05-10T07:02:07;9.07;;;5.13;;
56363;SDS011;42261;52.094;4.326;2023-05-10T07:04:51;11.05;;;4.47;;
56363;SDS011;42261;52.094;4.326;2023-05-10T07:07:36;8.15;;;4.32;;
56363;SDS011;42261;52.094;4.326;2023-05-10T07:10:20;8.00;;;4.80;;
56363;SDS011;42261;52.094;4.326;2023-05-10T07:13:04;11.35;;;3.35;;
56363;SDS011;42261;52.094;4.326;2023-05-10T07:15:48;6.28;;;3.78;;
56363;SDS011;42261;52.094;4.326;2023-05-10T07:18:32;8.25;;;2.80;;
56363;SDS011;42261;52.094;4.326;2023-05-10T07:21:16;7.95;;;3.15;;
56363;SDS011;42261;52.094;4.326;2023-05-10T07:24:00;6.57;;;2.97;;
56363;SDS011;42261;52.094;4.326;2023-05-10T07:26:44;4.03;;;2.17;;
56363;SDS011;42261;52.094;4.326;2023-05-10T07:29:29;6.32;;;2.00;;
56363;SDS011;42261;52.094;4.326;2023-05-10T07:32:13;7.53;;;2.40;;
56363;SDS011;42261;52.094;4.326;2023-05-10T07:34:58;3.38;;;1.95;;
56363;SDS011;42261;52.094;4.326;2023-05-10T07:37:43;3.33;;;1.88;;
56363;SDS011;42261;52.094;4.326;2023-05-10T07:40:27;3.15;;;1.77;;
56363;SDS011;42261;52.094;4.326;2023-05-10T07:43:11;2.67;;;1.45;;
56363;SDS011;42261;52.094;4.326;2023-05-10T07:45:55;2.90;;;1.92;;
56363;SDS011;42261;52.094;4.326;2023-05-10T07:48:41;3.47;;;1.80;;
56363;SDS011;42261;52.094;4.326;2023-05-10T07:51:25;2.60;;;1.70;;
56363;SDS011;42261;52.094;4.326;2023-05-10T07:54:09;3.92;;;1.90;;
56363;SDS011;42261;52.094;4.326;2023-05-10T07:56:54;2.53;;;1.65;;
56363;SDS011;42261;52.094;4.326;2023-05-10T07:59:39;2.40;;;1.40;;
56363;SDS011;42261;52.094;4.326;2023-05-10T08:02:23;3.72;;;1.60;;
56363;SDS011;42261;52.094;4.326;2023-05-10T08:05:07;2.28;;;1.40;;
56363;SDS011;42261;52.094;4.326;2023-05-10T08:07:52;2.53;;;1.55;;
56363;SDS011;42261;52.094;4.326;2023-05-10T08:10:36;3.55;;;1.40;;
56363;SDS011;42261;52.094;4.326;2023-05-10T08:13:20;2.33;;;1.40;;
56363;SDS011;42261;52.094;4.326;2023-05-10T08:16:04;2.72;;;1.50;;
56363;SDS011;42261;52.094;4.326;2023-05-10T08:18:49;4.13;;;1.85;;
56363;SDS011;42261;52.094;4.326;2023-05-10T08:21:34;5.10;;;2.63;;
56363;SDS011;42261;52.094;4.326;2023-05-10T08:24:19;6.03;;;3.10;;
56363;SDS011;42261;52.094;4.326;2023-05-10T08:27:03;5.18;;;2.97;;
56363;SDS011;42261;52.094;4.326;2023-05-10T08:29:46;9.05;;;3.72;;
56363;SDS011;42261;52.094;4.326;2023-05-10T08:32:31;9.48;;;3.92;;
56363;SDS011;42261;52.094;4.326;2023-05-10T08:35:16;8.05;;;4.13;;
56363;SDS011;42261;52.094;4.326;2023-05-10T08:38:00;8.25;;;3.88;;
56363;SDS011;42261;52.094;4.326;2023-05-10T08:40:44;8.88;;;4.28;;
56363;SDS011;42261;52.094;4.326;2023-05-10T08:43:30;8.55;;;3.63;;
56363;SDS011;42261;52.094;4.326;2023-05-10T08:46:15;8.48;;;3.83;;
56363;SDS011;42261;52.094;4.326;2023-05-10T08:49:01;9.48;;;3.88;;
56363;SDS011;42261;52.094;4.326;2023-05-10T08:51:47;5.97;;;3.38;;
56363;SDS011;42261;52.094;4.326;2023-05-10T08:54:34;8.10;;;3.45;;
56363;SDS011;42261;52.094;4.326;2023-05-10T08:57:18;7.60;;;3.10;;
56363;SDS011;42261;52.094;4.326;2023-05-10T09:00:03;11.38;;;3.80;;
56363;SDS011;42261;52.094;4.326;2023-05-10T09:02:49;11.48;;;3.97;;
56363;SDS011;42261;52.094;4.326;2023-05-10T09:05:33;9.77;;;4.13;;
56363;SDS011;42261;52.094;4.326;2023-05-10T09:08:17;8.88;;;4.25;;
56363;SDS011;42261;52.094;4.326;2023-05-10T09:11:01;11.55;;;4.25;;
56363;SDS011;42261;52.094;4.326;2023-05-10T09:13:48;11.82;;;4.53;;
56363;SDS011;42261;52.094;4.326;2023-05-10T09:16:32;9.88;;;4.72;;
56363;SDS011;42261;52.094;4.326;2023-05-10T09:19:16;11.85;;;4.80;;
56363;SDS011;42261;52.094;4.326;2023-05-10T09:22:00;8.40;;;3.70;;
56363;SDS011;42261;52.094;4.326;2023-05-10T09:24:46;11.32;;;4.13;;
56363;SDS011;42261;52.094;4.326;2023-05-10T09:27:30;10.40;;;4.60;;
56363;SDS011;42261;52.094;4.326;2023-05-10T09:30:15;23.08;;;4.90;;
56363;SDS011;42261;52.094;4.326;2023-05-10T09:33:00;10.05;;;4.25;;
56363;SDS011;42261;52.094;4.326;2023-05-10T09:35:45;7.68;;;3.45;;
56363;SDS011;42261;52.094;4.326;2023-05-10T09:38:29;12.45;;;4.35;;
56363;SDS011;42261;52.094;4.326;2023-05-10T09:44:14;7.72;;;4.18;;
56363;SDS011;42261;52.094;4.326;2023-05-10T09:47:01;15.65;;;4.35;;
56363;SDS011;42261;52.094;4.326;2023-05-10T09:49:49;8.95;;;3.13;;
56363;SDS011;42261;52.094;4.326;2023-05-10T09:52:47;7.25;;;3.40;;
56363;SDS011;42261;52.094;4.326;2023-05-10T09:58:21;8.27;;;3.60;;
56363;SDS011;42261;52.094;4.326;2023-05-10T10:01:10;12.15;;;3.85;;
56363;SDS011;42261;52.094;4.326;2023-05-10T10:03:54;9.48;;;4.47;;
56363;SDS011;42261;52.094;4.326;2023-05-10T10:06:41;17.15;;;4.82;;
56363;SDS011;42261;52.094;4.326;2023-05-10T10:09:26;9.43;;;4.53;;
56363;SDS011;42261;52.094;4.326;2023-05-10T10:12:10;14.50;;;4.25;;
56363;SDS011;42261;52.094;4.326;2023-05-10T10:14:54;12.75;;;4.43;;
56363;SDS011;42261;52.094;4.326;2023-05-10T10:17:40;8.77;;;4.00;;
56363;SDS011;42261;52.094;4.326;2023-05-10T10:20:24;12.38;;;4.70;;
56363;SDS011;42261;52.094;4.326;2023-05-10T10:23:09;10.43;;;4.32;;
56363;SDS011;42261;52.094;4.326;2023-05-10T10:25:54;10.23;;;4.28;;
56363;SDS011;42261;52.094;4.326;2023-05-10T10:32:19;5.88;;;3.42;;
56363;SDS011;42261;52.094;4.326;2023-05-10T10:34:30;8.18;;;3.58;;
56363;SDS011;42261;52.094;4.326;2023-05-10T10:37:15;7.53;;;3.95;;
56363;SDS011;42261;52.094;4.326;2023-05-10T10:39:59;6.65;;;4.20;;
56363;SDS011;42261;52.094;4.326;2023-05-10T10:42:43;7.25;;;4.25;;
56363;SDS011;42261;52.094;4.326;2023-05-10T10:45:27;7.88;;;4.53;;
56363;SDS011;42261;52.094;4.326;2023-05-10T10:48:23;10.88;;;5.05;;
56363;SDS011;42261;52.094;4.326;2023-05-10T10:51:07;11.05;;;4.72;;
56363;SDS011;42261;52.094;4.326;2023-05-10T10:53:51;8.98;;;4.88;;
56363;SDS011;42261;52.094;4.326;2023-05-10T10:56:35;10.75;;;4.97;;
56363;SDS011;42261;52.094;4.326;2023-05-10T10:59:26;9.38;;;4.13;;
56363;SDS011;42261;52.094;4.326;2023-05-10T11:02:17;9.73;;;4.50;;
56363;SDS011;42261;52.094;4.326;2023-05-10T11:05:34;8.75;;;4.65;;
56363;SDS011;42261;52.094;4.326;2023-05-10T11:08:28;12.00;;;5.53;;
56363;SDS011;42261;52.094;4.326;2023-05-10T11:11:14;11.35;;;4.72;;
56363;SDS011;42261;52.094;4.326;2023-05-10T11:14:02;8.82;;;4.22;;
56363;SDS011;42261;52.094;4.326;2023-05-10T11:16:47;10.88;;;4.40;;
56363;SDS011;42261;52.094;4.326;2023-05-10T11:19:31;9.95;;;5.20;;
56363;SDS011;42261;52.094;4.326;2023-05-10T11:22:15;8.93;;;4.22;;
56363;SDS011;42261;52.094;4.326;2023-05-10T11:25:00;11.07;;;4.32;;
56363;SDS011;42261;52.094;4.326;2023-05-10T11:27:45;11.25;;;4.82;;
56363;SDS011;42261;52.094;4.326;2023-05-10T11:30:30;10.80;;;5.00;;
56363;SDS011;42261;52.094;4.326;2023-05-10T11:33:15;11.13;;;4.72;;
56363;SDS011;42261;52.094;4.326;2023-05-10T11:36:00;10.10;;;4.78;;
56363;SDS011;42261;52.094;4.326;2023-05-10T11:38:44;11.98;;;4.90;;
56363;SDS011;42261;52.094;4.326;2023-05-10T11:41:29;14.57;;;5.28;;
56363;SDS011;42261;52.094;4.326;2023-05-10T11:44:13;12.80;;;5.47;;
56363;SDS011;42261;52.094;4.326;2023-05-10T11:47:01;14.93;;;5.63;;
56363;SDS011;42261;52.094;4.326;2023-05-10T11:49:45;12.93;;;5.18;;
56363;SDS011;42261;52.094;4.326;2023-05-10T11:52:29;11.82;;;4.78;;
56363;SDS011;42261;52.094;4.326;2023-05-10T11:55:19;14.00;;;5.63;;
56363;SDS011;42261;52.094;4.326;2023-05-10T11:58:03;17.70;;;5.53;;
56363;SDS011;42261;52.094;4.326;2023-05-10T12:00:47;14.18;;;4.22;;
56363;SDS011;42261;52.094;4.326;2023-05-10T12:03:32;9.73;;;4.10;;
56363;SDS011;42261;52.094;4.326;2023-05-10T12:06:16;9.68;;;4.20;;
56363;SDS011;42261;52.094;4.326;2023-05-10T12:09:02;11.02;;;4.63;;
56363;SDS011;42261;52.094;4.326;2023-05-10T12:11:49;12.75;;;4.65;;
56363;SDS011;42261;52.094;4.326;2023-05-10T12:14:38;14.00;;;5.15;;
56363;SDS011;42261;52.094;4.326;2023-05-10T12:17:26;12.48;;;4.78;;
56363;SDS011;42261;52.094;4.326;2023-05-10T12:20:18;15.10;;;5.30;;
56363;SDS011;42261;52.094;4.326;2023-05-10T12:23:02;12.90;;;5.25;;
56363;SDS011;42261;52.094;4.326;2023-05-10T12:25:47;10.90;;;5.47;;
56363;SDS011;42261;52.094;4.326;2023-05-10T12:28:32;12.88;;;4.80;;
56363;SDS011;42261;52.094;4.326;2023-05-10T12:31:15;13.68;;;5.05;;
56363;SDS011;42261;52.094;4.326;2023-05-10T12:34:00;11.68;;;5.53;;
56363;SDS011;42261;52.094;4.326;2023-05-10T12:36:45;13.68;;;4.50;;
56363;SDS011;42261;52.094;4.326;2023-05-10T12:39:39;11.40;;;4.88;;
56363;SDS011;42261;52.094;4.326;2023-05-10T12:42:24;11.52;;;4.70;;
56363;SDS011;42261;52.094;4.326;2023-05-10T12:45:08;14.07;;;4.75;;
56363;SDS011;42261;52.094;4.326;2023-05-10T12:47:54;13.43;;;5.97;;
56363;SDS011;42261;52.094;4.326;2023-05-10T12:50:38;9.60;;;4.95;;
56363;SDS011;42261;52.094;4.326;2023-05-10T12:53:22;10.85;;;4.93;;
56363;SDS011;42261;52.094;4.326;2023-05-10T12:56:06;10.25;;;4.35;;
56363;SDS011;42261;52.094;4.326;2023-05-10T12:58:51;9.52;;;4.07;;
56363;SDS011;42261;52.094;4.326;2023-05-10T13:01:35;10.55;;;4.22;;
56363;SDS011;42261;52.094;4.326;2023-05-10T13:04:19;10.80;;;5.13;;
56363;SDS011;42261;52.094;4.326;2023-05-10T13:07:04;13.55;;;6.05;;
56363;SDS011;42261;52.094;4.326;2023-05-10T13:09:48;9.77;;;5.03;;
56363;SDS011;42261;52.094;4.326;2023-05-10T13:12:32;10.73;;;4.75;;
56363;SDS011;42261;52.094;4.326;2023-05-10T13:15:16;9.98;;;4.85;;
56363;SDS011;42261;52.094;4.326;2023-05-10T13:18:00;9.52;;;4.93;;
56363;SDS011;42261;52.094;4.326;2023-05-10T13:20:44;8.98;;;3.92;;
56363;SDS011;42261;52.094;4.326;2023-05-10T13:23:28;8.63;;;4.55;;
56363;SDS011;42261;52.094;4.326;2023-05-10T13:26:13;7.18;;;3.60;;
56363;SDS011;42261;52.094;4.326;2023-05-10T13:28:57;7.28;;;2.42;;
56363;SDS011;42261;52.094;4.326;2023-05-10T13:31:41;6.30;;;2.78;;
56363;SDS011;42261;52.094;4.326;2023-05-10T13:34:26;8.82;;;3.97;;
56363;SDS011;42261;52.094;4.326;2023-05-10T13:37:10;6.55;;;3.10;;
56363;SDS011;42261;52.094;4.326;2023-05-10T13:39:54;4.97;;;2.63;;
56363;SDS011;42261;52.094;4.326;2023-05-10T13:42:38;5.22;;;2.80;;
56363;SDS011;42261;52.094;4.326;2023-05-10T13:45:23;5.55;;;1.98;;
56363;SDS011;42261;52.094;4.326;2023-05-10T13:48:08;4.97;;;2.67;;
56363;SDS011;42261;52.094;4.326;2023-05-10T13:50:54;5.38;;;2.75;;
56363;SDS011;42261;52.094;4.326;2023-05-10T13:53:38;4.07;;;2.20;;
56363;SDS011;42261;52.094;4.326;2023-05-10T13:56:22;6.03;;;2.70;;
56363;SDS011;42261;52.094;4.326;2023-05-10T13:59:05;6.38;;;2.30;;
56363;SDS011;42261;52.094;4.326;2023-05-10T14:01:50;4.40;;;2.45;;
56363;SDS011;42261;52.094;4.326;2023-05-10T14:04:35;6.65;;;3.13;;
56363;SDS011;42261;52.094;4.326;2023-05-10T14:07:19;4.53;;;2.58;;
56363;SDS011;42261;52.094;4.326;2023-05-10T14:10:03;5.78;;;2.78;;
56363;SDS011;42261;52.094;4.326;2023-05-10T14:12:47;6.18;;;2.95;;
56363;SDS011;42261;52.094;4.326;2023-05-10T14:15:31;6.50;;;2.78;;
56363;SDS011;42261;52.094;4.326;2023-05-10T14:18:15;7.78;;;3.80;;
56363;SDS011;42261;52.094;4.326;2023-05-10T14:20:59;4.20;;;2.72;;
56363;SDS011;42261;52.094;4.326;2023-05-10T14:23:45;4.60;;;2.72;;
56363;SDS011;42261;52.094;4.326;2023-05-10T14:26:30;4.35;;;2.33;;
56363;SDS011;42261;52.094;4.326;2023-05-10T14:29:15;5.78;;;3.17;;
56363;SDS011;42261;52.094;4.326;2023-05-10T14:31:59;5.15;;;2.50;;
56363;SDS011;42261;52.094;4.326;2023-05-10T14:34:43;4.45;;;2.28;;
56363;SDS011;42261;52.094;4.326;2023-05-10T14:37:27;6.82;;;2.88;;
56363;SDS011;42261;52.094;4.326;2023-05-10T14:40:11;5.32;;;2.38;;
56363;SDS011;42261;52.094;4.326;2023-05-10T14:42:56;5.25;;;2.50;;
56363;SDS011;42261;52.094;4.326;2023-05-10T14:45:40;7.43;;;2.72;;
56363;SDS011;42261;52.094;4.326;2023-05-10T14:48:25;5.55;;;2.47;;
56363;SDS011;42261;52.094;4.326;2023-05-10T14:51:09;4.38;;;2.55;;
56363;SDS011;42261;52.094;4.326;2023-05-10T14:53:53;4.15;;;2.40;;
56363;SDS011;42261;52.094;4.326;2023-05-10T14:56:37;6.18;;;2.67;;
56363;SDS011;42261;52.094;4.326;2023-05-10T14:59:21;4.88;;;2.30;;
56363;SDS011;42261;52.094;4.326;2023-05-10T15:02:06;4.43;;;2.83;;
56363;SDS011;42261;52.094;4.326;2023-05-10T15:04:54;5.60;;;2.97;;
56363;SDS011;42261;52.094;4.326;2023-05-10T15:07:38;5.85;;;2.78;;
56363;SDS011;42261;52.094;4.326;2023-05-10T15:10:22;4.38;;;2.67;;
56363;SDS011;42261;52.094;4.326;2023-05-10T15:13:06;4.10;;;2.50;;
56363;SDS011;42261;52.094;4.326;2023-05-10T15:15:50;4.30;;;2.72;;
56363;SDS011;42261;52.094;4.326;2023-05-10T15:18:34;5.03;;;2.80;;
56363;SDS011;42261;52.094;4.326;2023-05-10T15:21:18;5.82;;;3.28;;
56363;SDS011;42261;52.094;4.326;2023-05-10T15:24:03;10.15;;;4.22;;
56363;SDS011;42261;52.094;4.326;2023-05-10T15:26:47;8.13;;;4.50;;
56363;SDS011;42261;52.094;4.326;2023-05-10T15:29:32;8.30;;;4.80;;
56363;SDS011;42261;52.094;4.326;2023-05-10T15:32:16;7.78;;;4.88;;
56363;SDS011;42261;52.094;4.326;2023-05-10T15:35:00;11.18;;;4.88;;
56363;SDS011;42261;52.094;4.326;2023-05-10T15:37:45;10.93;;;5.72;;
56363;SDS011;42261;52.094;4.326;2023-05-10T15:40:30;11.48;;;6.13;;
56363;SDS011;42261;52.094;4.326;2023-05-10T15:43:14;10.63;;;5.85;;
56363;SDS011;42261;52.094;4.326;2023-05-10T15:45:59;10.93;;;5.25;;
56363;SDS011;42261;52.094;4.326;2023-05-10T15:48:43;9.63;;;5.18;;
56363;SDS011;42261;52.094;4.326;2023-05-10T15:51:27;12.48;;;5.13;;
56363;SDS011;42261;52.094;4.326;2023-05-10T15:54:11;9.15;;;5.10;;
56363;SDS011;42261;52.094;4.326;2023-05-10T15:56:56;11.27;;;5.38;;
56363;SDS011;42261;52.094;4.326;2023-05-10T15:59:40;11.85;;;6.05;;
56363;SDS011;42261;52.094;4.326;2023-05-10T16:02:24;11.48;;;5.63;;
56363;SDS011;42261;52.094;4.326;2023-05-10T16:05:10;10.75;;;5.07;;
56363;SDS011;42261;52.094;4.326;2023-05-10T16:07:54;15.10;;;6.80;;
56363;SDS011;42261;52.094;4.326;2023-05-10T16:10:38;8.73;;;4.00;;
56363;SDS011;42261;52.094;4.326;2023-05-10T16:13:23;8.50;;;4.18;;
56363;SDS011;42261;52.094;4.326;2023-05-10T16:16:07;9.95;;;4.22;;
56363;SDS011;42261;52.094;4.326;2023-05-10T16:18:51;8.00;;;4.63;;
56363;SDS011;42261;52.094;4.326;2023-05-10T16:21:35;10.25;;;4.82;;
56363;SDS011;42261;52.094;4.326;2023-05-10T16:24:20;12.85;;;5.93;;
56363;SDS011;42261;52.094;4.326;2023-05-10T16:27:04;14.40;;;5.50;;
56363;SDS011;42261;52.094;4.326;2023-05-10T16:29:48;10.30;;;5.45;;
56363;SDS011;42261;52.094;4.326;2023-05-10T16:32:33;12.27;;;4.93;;
56363;SDS011;42261;52.094;4.326;2023-05-10T16:35:18;12.40;;;5.22;;
56363;SDS011;42261;52.094;4.326;2023-05-10T16:38:02;8.75;;;4.93;;
56363;SDS011;42261;52.094;4.326;2023-05-10T16:40:46;14.38;;;5.72;;
56363;SDS011;42261;52.094;4.326;2023-05-10T16:43:31;8.40;;;3.63;;
56363;SDS011;42261;52.094;4.326;2023-05-10T16:46:15;9.40;;;4.40;;
56363;SDS011;42261;52.094;4.326;2023-05-10T16:48:59;8.13;;;3.83;;
56363;SDS011;42261;52.094;4.326;2023-05-10T16:51:43;6.93;;;3.90;;
56363;SDS011;42261;52.094;4.326;2023-05-10T16:54:27;8.30;;;4.35;;